sensor_id;sensor_type;location;lat;lon;timestamp;pressure;altitude;pressure_sealevel;temperature;humidity
9905;BME280;4991;43.566;27.820;2023-01-09T00:00:16;99437.00;;;4.97;100.00
9905;BME280;4991;43.566;27.820;2023-01-09T00:02:42;99442.91;;;4.94;100.00
9905;BME280;4991;43.566;27.820;2023-01-09T00:05:13;99449.69;;;4.96;100.00
9905;BME280;4991;43.566;27.820;2023-01-09T00:07:39;99444.84;;;4.98;100.00
9905;BME280;4991;43.566;27.820;2023-01-09T00:10:05;99447.31;;;5.00;100.00
9905;BME280;4991;43.566;27.820;2023-01-09T00:12:32;99445.75;;;5.04;100.00
9905;BME280;4991;43.566;27.820;2023-01-09T00:14:57;99436.00;;;5.03;100.00
9905;BME280;4991;43.566;27.820;2023-01-09T00:17:23;99442.47;;;5.02;100.00
9905;BME280;4991;43.566;27.820;2023-01-09T00:19:48;99431.09;;;5.00;100.00
9905;BME280;4991;43.566;27.820;2023-01-09T00:22:14;99438.94;;;5.01;100.00
9905;BME280;4991;43.566;27.820;2023-01-09T00:24:40;99435.41;;;5.01;100.00
9905;BME280;4991;43.566;27.820;2023-01-09T00:27:05;99427.00;;;4.97;100.00
9905;BME280;4991;43.566;27.820;2023-01-09T00:29:31;99430.53;;;4.98;100.00
9905;BME280;4991;43.566;27.820;2023-01-09T00:31:57;99428.66;;;4.98;100.00
9905;BME280;4991;43.566;27.820;2023-01-09T00:34:22;99428.34;;;4.95;100.00
9905;BME280;4991;43.566;27.820;2023-01-09T00:36:48;99414.03;;;4.94;100.00
9905;BME280;4991;43.566;27.820;2023-01-09T00:39:20;99417.03;;;4.98;100.00
9905;BME280;4991;43.566;27.820;2023-01-09T00:41:49;99424.88;;;4.99;100.00
9905;BME280;4991;43.566;27.820;2023-01-09T00:44:30;99423.53;;;4.97;100.00
9905;BME280;4991;43.566;27.820;2023-01-09T00:47:00;99421.63;;;4.97;100.00
9905;BME280;4991;43.566;27.820;2023-01-09T00:49:29;99415.47;;;5.02;100.00
9905;BME280;4991;43.566;27.820;2023-01-09T00:51:55;99415.75;;;5.00;100.00
9905;BME280;4991;43.566;27.820;2023-01-09T00:54:21;99410.66;;;5.04;100.00
9905;BME280;4991;43.566;27.820;2023-01-09T00:56:47;99414.16;;;5.04;100.00
9905;BME280;4991;43.566;27.820;2023-01-09T00:59:13;99402.78;;;5.02;100.00
9905;BME280;4991;43.566;27.820;2023-01-09T01:01:39;99403.59;;;5.03;100.00
9905;BME280;4991;43.566;27.820;2023-01-09T01:04:05;99391.19;;;5.02;100.00
9905;BME280;4991;43.566;27.820;2023-01-09T01:06:49;99383.66;;;5.04;100.00
9905;BME280;4991;43.566;27.820;2023-01-09T01:09:33;99390.41;;;5.06;100.00
9905;BME280;4991;43.566;27.820;2023-01-09T01:12:00;99385.06;;;5.11;100.00
9905;BME280;4991;43.566;27.820;2023-01-09T01:14:35;99382.69;;;5.15;100.00
9905;BME280;4991;43.566;27.820;2023-01-09T01:17:02;99372.41;;;5.12;100.00
9905;BME280;4991;43.566;27.820;2023-01-09T01:19:28;99375.09;;;5.12;100.00
9905;BME280;4991;43.566;27.820;2023-01-09T01:21:53;99367.78;;;5.12;100.00
9905;BME280;4991;43.566;27.820;2023-01-09T01:24:19;99368.31;;;5.09;100.00
9905;BME280;4991;43.566;27.820;2023-01-09T01:26:45;99362.66;;;5.11;100.00
9905;BME280;4991;43.566;27.820;2023-01-09T01:29:11;99361.03;;;5.10;100.00
9905;BME280;4991;43.566;27.820;2023-01-09T01:31:37;99361.81;;;5.05;100.00
9905;BME280;4991;43.566;27.820;2023-01-09T01:34:03;99362.91;;;5.09;100.00
9905;BME280;4991;43.566;27.820;2023-01-09T01:36:28;99357.00;;;5.12;100.00
9905;BME280;4991;43.566;27.820;2023-01-09T01:38:54;99345.34;;;5.07;100.00
9905;BME280;4991;43.566;27.820;2023-01-09T01:41:20;99355.34;;;5.06;100.00
9905;BME280;4991;43.566;27.820;2023-01-09T01:44:06;99358.28;;;5.05;100.00
9905;BME280;4991;43.566;27.820;2023-01-09T01:46:33;99348.00;;;5.02;100.00
9905;BME280;4991;43.566;27.820;2023-01-09T01:49:13;99339.13;;;5.06;100.00
9905;BME280;4991;43.566;27.820;2023-01-09T01:51:43;99346.66;;;5.04;100.00
9905;BME280;4991;43.566;27.820;2023-01-09T01:54:16;99335.59;;;5.06;100.00
9905;BME280;4991;43.566;27.820;2023-01-09T01:56:45;99326.97;;;5.04;100.00
9905;BME280;4991;43.566;27.820;2023-01-09T01:59:18;99327.19;;;5.02;100.00
9905;BME280;4991;43.566;27.820;2023-01-09T02:01:48;99322.63;;;5.03;100.00
9905;BME280;4991;43.566;27.820;2023-01-09T02:04:15;99315.91;;;5.05;100.00
9905;BME280;4991;43.566;27.820;2023-01-09T02:06:43;99323.75;;;5.07;100.00
9905;BME280;4991;43.566;27.820;2023-01-09T02:09:10;99319.41;;;5.06;100.00
9905;BME280;4991;43.566;27.820;2023-01-09T02:11:47;99318.63;;;5.05;100.00
9905;BME280;4991;43.566;27.820;2023-01-09T02:14:14;99314.31;;;5.09;100.00
9905;BME280;4991;43.566;27.820;2023-01-09T02:17:06;99317.84;;;5.10;100.00
9905;BME280;4991;43.566;27.820;2023-01-09T02:20:02;99323.50;;;5.08;100.00
9905;BME280;4991;43.566;27.820;2023-01-09T02:23:06;99318.06;;;5.03;100.00
9905;BME280;4991;43.566;27.820;2023-01-09T02:34:08;99313.66;;;4.97;100.00
9905;BME280;4991;43.566;27.820;2023-01-09T02:36:50;99315.00;;;4.95;100.00
9905;BME280;4991;43.566;27.820;2023-01-09T02:39:26;99310.13;;;4.92;100.00
9905;BME280;4991;43.566;27.820;2023-01-09T02:42:03;99302.28;;;4.90;100.00
9905;BME280;4991;43.566;27.820;2023-01-09T02:44:32;99313.06;;;4.90;100.00
9905;BME280;4991;43.566;27.820;2023-01-09T02:47:04;99312.00;;;4.91;100.00
9905;BME280;4991;43.566;27.820;2023-01-09T02:49:35;99309.53;;;4.90;100.00
9905;BME280;4991;43.566;27.820;2023-01-09T02:58:16;99314.63;;;4.86;100.00
9905;BME280;4991;43.566;27.820;2023-01-09T03:08:47;99306.22;;;4.83;100.00
9905;BME280;4991;43.566;27.820;2023-01-09T03:11:15;99304.88;;;4.80;100.00
9905;BME280;4991;43.566;27.820;2023-01-09T03:16:13;99313.72;;;4.76;100.00
9905;BME280;4991;43.566;27.820;2023-01-09T03:18:41;99304.25;;;4.73;100.00
9905;BME280;4991;43.566;27.820;2023-01-09T03:21:08;99309.38;;;4.75;100.00
9905;BME280;4991;43.566;27.820;2023-01-09T03:26:14;99306.13;;;4.73;100.00
9905;BME280;4991;43.566;27.820;2023-01-09T03:28:40;99301.81;;;4.72;100.00
9905;BME280;4991;43.566;27.820;2023-01-09T03:31:06;99310.47;;;4.74;100.00
9905;BME280;4991;43.566;27.820;2023-01-09T03:33:31;99306.38;;;4.71;100.00
9905;BME280;4991;43.566;27.820;2023-01-09T03:35:57;99304.50;;;4.72;100.00
9905;BME280;4991;43.566;27.820;2023-01-09T03:38:23;99307.19;;;4.72;100.00
9905;BME280;4991;43.566;27.820;2023-01-09T03:40:50;99308.75;;;4.68;100.00
9905;BME280;4991;43.566;27.820;2023-01-09T03:43:16;99307.97;;;4.67;100.00
9905;BME280;4991;43.566;27.820;2023-01-09T03:45:42;99301.75;;;4.67;100.00
9905;BME280;4991;43.566;27.820;2023-01-09T03:48:07;99309.06;;;4.71;100.00
9905;BME280;4991;43.566;27.820;2023-01-09T03:50:33;99307.19;;;4.72;100.00
9905;BME280;4991;43.566;27.820;2023-01-09T03:52:59;99299.09;;;4.72;100.00
9905;BME280;4991;43.566;27.820;2023-01-09T03:55:25;99301.53;;;4.73;100.00
9905;BME280;4991;43.566;27.820;2023-01-09T03:57:50;99303.72;;;4.76;100.00
9905;BME280;4991;43.566;27.820;2023-01-09T04:00:20;99296.47;;;4.77;100.00
9905;BME280;4991;43.566;27.820;2023-01-09T04:02:46;99304.00;;;4.75;100.00
9905;BME280;4991;43.566;27.820;2023-01-09T04:05:12;99307.19;;;4.72;100.00
9905;BME280;4991;43.566;27.820;2023-01-09T04:07:38;99305.81;;;4.69;100.00
9905;BME280;4991;43.566;27.820;2023-01-09T04:10:04;99304.69;;;4.65;100.00
9905;BME280;4991;43.566;27.820;2023-01-09T04:12:29;99306.31;;;4.66;100.00
9905;BME280;4991;43.566;27.820;2023-01-09T04:14:55;99293.34;;;4.63;100.00
9905;BME280;4991;43.566;27.820;2023-01-09T04:17:21;99286.28;;;4.57;100.00
9905;BME280;4991;43.566;27.820;2023-01-09T04:19:46;99290.38;;;4.65;100.00
9905;BME280;4991;43.566;27.820;2023-01-09T04:22:12;99290.13;;;4.66;100.00
9905;BME280;4991;43.566;27.820;2023-01-09T04:24:37;99286.63;;;4.66;100.00
9905;BME280;4991;43.566;27.820;2023-01-09T04:27:03;99294.47;;;4.67;100.00
9905;BME280;4991;43.566;27.820;2023-01-09T04:29:29;99288.56;;;4.70;100.00
9905;BME280;4991;43.566;27.820;2023-01-09T04:31:54;99290.69;;;4.68;100.00
9905;BME280;4991;43.566;27.820;2023-01-09T04:34:20;99281.84;;;4.73;100.00
9905;BME280;4991;43.566;27.820;2023-01-09T04:36:50;99278.09;;;4.74;100.00
9905;BME280;4991;43.566;27.820;2023-01-09T04:39:16;99275.97;;;4.76;100.00
9905;BME280;4991;43.566;27.820;2023-01-09T04:41:42;99280.03;;;4.78;100.00
9905;BME280;4991;43.566;27.820;2023-01-09T04:44:19;99270.56;;;4.76;100.00
9905;BME280;4991;43.566;27.820;2023-01-09T04:46:45;99278.94;;;4.79;100.00
9905;BME280;4991;43.566;27.820;2023-01-09T04:49:11;99275.97;;;4.81;100.00
9905;BME280;4991;43.566;27.820;2023-01-09T04:51:37;99288.16;;;4.83;100.00
9905;BME280;4991;43.566;27.820;2023-01-09T04:54:03;99272.50;;;4.80;100.00
9905;BME280;4991;43.566;27.820;2023-01-09T04:56:29;99278.44;;;4.82;100.00
9905;BME280;4991;43.566;27.820;2023-01-09T04:58:54;99289.00;;;4.84;100.00
9905;BME280;4991;43.566;27.820;2023-01-09T05:01:20;99291.94;;;4.82;100.00
9905;BME280;4991;43.566;27.820;2023-01-09T05:03:45;99292.22;;;4.86;100.00
9905;BME280;4991;43.566;27.820;2023-01-09T05:06:11;99291.16;;;4.87;100.00
9905;BME280;4991;43.566;27.820;2023-01-09T05:08:37;99286.59;;;4.87;100.00
9905;BME280;4991;43.566;27.820;2023-01-09T05:11:02;99292.78;;;4.88;100.00
9905;BME280;4991;43.566;27.820;2023-01-09T05:13:28;99294.91;;;4.86;100.00
9905;BME280;4991;43.566;27.820;2023-01-09T05:15:54;99298.69;;;4.85;100.00
9905;BME280;4991;43.566;27.820;2023-01-09T05:18:19;99301.16;;;4.86;100.00
9905;BME280;4991;43.566;27.820;2023-01-09T05:20:45;99299.00;;;4.88;100.00
9905;BME280;4991;43.566;27.820;2023-01-09T05:23:11;99299.56;;;4.90;100.00
9905;BME280;4991;43.566;27.820;2023-01-09T05:25:36;99298.25;;;4.93;100.00
9905;BME280;4991;43.566;27.820;2023-01-09T05:28:02;99293.09;;;4.91;100.00
9905;BME280;4991;43.566;27.820;2023-01-09T05:30:28;99289.84;;;4.89;100.00
9905;BME280;4991;43.566;27.820;2023-01-09T05:32:53;99284.75;;;4.93;100.00
9905;BME280;4991;43.566;27.820;2023-01-09T05:35:19;99290.97;;;4.93;100.00
9905;BME280;4991;43.566;27.820;2023-01-09T05:37:45;99287.44;;;4.93;100.00
9905;BME280;4991;43.566;27.820;2023-01-09T05:40:11;99285.81;;;4.92;100.00
9905;BME280;4991;43.566;27.820;2023-01-09T05:42:37;99295.59;;;4.98;100.00
9905;BME280;4991;43.566;27.820;2023-01-09T05:45:04;99291.84;;;4.99;100.00
9905;BME280;4991;43.566;27.820;2023-01-09T05:47:29;99294.81;;;5.02;100.00
9905;BME280;4991;43.566;27.820;2023-01-09T05:49:55;99292.94;;;5.03;100.00
9905;BME280;4991;43.566;27.820;2023-01-09T05:52:21;99291.06;;;5.03;100.00
9905;BME280;4991;43.566;27.820;2023-01-09T05:54:47;99294.31;;;5.05;100.00
9905;BME280;4991;43.566;27.820;2023-01-09T05:57:13;99285.97;;;5.07;100.00
9905;BME280;4991;43.566;27.820;2023-01-09T05:59:38;99291.63;;;5.05;100.00
9905;BME280;4991;43.566;27.820;2023-01-09T06:02:04;99279.50;;;5.08;100.00
9905;BME280;4991;43.566;27.820;2023-01-09T06:04:30;99281.97;;;5.14;100.00
9905;BME280;4991;43.566;27.820;2023-01-09T06:06:56;99284.19;;;5.22;100.00
9905;BME280;4991;43.566;27.820;2023-01-09T06:09:21;99277.00;;;5.33;100.00
9905;BME280;4991;43.566;27.820;2023-01-09T06:11:47;99270.31;;;5.41;100.00
9905;BME280;4991;43.566;27.820;2023-01-09T06:14:12;99268.69;;;5.40;100.00
9905;BME280;4991;43.566;27.820;2023-01-09T06:16:38;99276.81;;;5.45;100.00
9905;BME280;4991;43.566;27.820;2023-01-09T06:19:04;99279.78;;;5.43;100.00
9905;BME280;4991;43.566;27.820;2023-01-09T06:21:30;99284.66;;;5.46;100.00
9905;BME280;4991;43.566;27.820;2023-01-09T06:23:57;99275.50;;;5.47;100.00
9905;BME280;4991;43.566;27.820;2023-01-09T06:26:23;99282.00;;;5.51;100.00
9905;BME280;4991;43.566;27.820;2023-01-09T06:28:49;99287.66;;;5.50;100.00
9905;BME280;4991;43.566;27.820;2023-01-09T06:31:15;99281.75;;;5.53;100.00
9905;BME280;4991;43.566;27.820;2023-01-09T06:33:41;99275.28;;;5.54;100.00
9905;BME280;4991;43.566;27.820;2023-01-09T06:36:06;99269.88;;;5.54;100.00
9905;BME280;4991;43.566;27.820;2023-01-09T06:38:32;99276.94;;;5.60;100.00
9905;BME280;4991;43.566;27.820;2023-01-09T06:40:58;99278.28;;;5.62;100.00
9905;BME280;4991;43.566;27.820;2023-01-09T06:43:23;99275.88;;;5.66;100.00
9905;BME280;4991;43.566;27.820;2023-01-09T06:45:49;99283.75;;;5.72;100.00
9905;BME280;4991;43.566;27.820;2023-01-09T06:48:14;99281.63;;;5.74;100.00
9905;BME280;4991;43.566;27.820;2023-01-09T06:50:40;99278.69;;;5.81;100.00
9905;BME280;4991;43.566;27.820;2023-01-09T06:53:06;99283.91;;;5.87;100.00
9905;BME280;4991;43.566;27.820;2023-01-09T06:55:32;99284.97;;;5.86;100.00
9905;BME280;4991;43.566;27.820;2023-01-09T06:57:58;99285.00;;;5.91;100.00
9905;BME280;4991;43.566;27.820;2023-01-09T07:00:23;99288.81;;;5.95;100.00
9905;BME280;4991;43.566;27.820;2023-01-09T07:02:49;99277.50;;;5.98;100.00
9905;BME280;4991;43.566;27.820;2023-01-09T07:05:15;99281.84;;;6.04;100.00
9905;BME280;4991;43.566;27.820;2023-01-09T07:07:41;99275.06;;;6.07;100.00
9905;BME280;4991;43.566;27.820;2023-01-09T07:10:07;99283.50;;;6.15;100.00
9905;BME280;4991;43.566;27.820;2023-01-09T07:12:33;99287.59;;;6.18;100.00
9905;BME280;4991;43.566;27.820;2023-01-09T07:14:59;99285.19;;;6.21;100.00
9905;BME280;4991;43.566;27.820;2023-01-09T07:17:25;99285.19;;;6.26;100.00
9905;BME280;4991;43.566;27.820;2023-01-09T07:19:51;99287.66;;;6.33;100.00
9905;BME280;4991;43.566;27.820;2023-01-09T07:22:17;99286.84;;;6.37;100.00
9905;BME280;4991;43.566;27.820;2023-01-09T07:24:43;99289.03;;;6.45;100.00
9905;BME280;4991;43.566;27.820;2023-01-09T07:27:09;99287.75;;;6.53;100.00
9905;BME280;4991;43.566;27.820;2023-01-09T07:29:35;99282.09;;;6.65;100.00
9905;BME280;4991;43.566;27.820;2023-01-09T07:32:01;99292.97;;;6.80;100.00
9905;BME280;4991;43.566;27.820;2023-01-09T07:34:27;99279.47;;;6.95;100.00
9905;BME280;4991;43.566;27.820;2023-01-09T07:36:52;99274.28;;;6.98;100.00
9905;BME280;4991;43.566;27.820;2023-01-09T07:39:18;99273.53;;;7.08;100.00
9905;BME280;4991;43.566;27.820;2023-01-09T07:41:44;99279.22;;;7.11;100.00
9905;BME280;4991;43.566;27.820;2023-01-09T07:44:10;99280.56;;;7.19;100.00
9905;BME280;4991;43.566;27.820;2023-01-09T07:46:36;99281.38;;;7.19;100.00
9905;BME280;4991;43.566;27.820;2023-01-09T07:49:02;99284.63;;;7.31;100.00
9905;BME280;4991;43.566;27.820;2023-01-09T07:51:27;99275.41;;;7.47;100.00
9905;BME280;4991;43.566;27.820;2023-01-09T07:53:53;99276.22;;;7.53;100.00
9905;BME280;4991;43.566;27.820;2023-01-09T07:56:19;99271.88;;;7.57;100.00
9905;BME280;4991;43.566;27.820;2023-01-09T07:58:44;99271.06;;;7.56;100.00
9905;BME280;4991;43.566;27.820;2023-01-09T08:01:10;99264.56;;;7.62;100.00
9905;BME280;4991;43.566;27.820;2023-01-09T08:03:36;99266.72;;;7.65;100.00
9905;BME280;4991;43.566;27.820;2023-01-09T08:06:02;99261.31;;;7.60;100.00
9905;BME280;4991;43.566;27.820;2023-01-09T08:08:28;99253.72;;;7.67;100.00
9905;BME280;4991;43.566;27.820;2023-01-09T08:10:53;99248.56;;;7.66;100.00
9905;BME280;4991;43.566;27.820;2023-01-09T08:13:19;99255.59;;;7.82;100.00
9905;BME280;4991;43.566;27.820;2023-01-09T08:15:45;99248.75;;;7.95;100.00
9905;BME280;4991;43.566;27.820;2023-01-09T08:18:10;99247.44;;;7.92;100.00
9905;BME280;4991;43.566;27.820;2023-01-09T08:20:36;99235.22;;;7.89;100.00
9905;BME280;4991;43.566;27.820;2023-01-09T08:23:01;99232.50;;;7.89;100.00
9905;BME280;4991;43.566;27.820;2023-01-09T08:25:27;99230.59;;;7.95;100.00
9905;BME280;4991;43.566;27.820;2023-01-09T08:27:53;99240.59;;;8.00;100.00
9905;BME280;4991;43.566;27.820;2023-01-09T08:30:18;99240.28;;;8.16;100.00
9905;BME280;4991;43.566;27.820;2023-01-09T08:32:49;99222.13;;;8.17;100.00
9905;BME280;4991;43.566;27.820;2023-01-09T08:35:15;99227.28;;;8.23;100.00
9905;BME280;4991;43.566;27.820;2023-01-09T08:37:45;99209.63;;;8.21;100.00
9905;BME280;4991;43.566;27.820;2023-01-09T08:40:12;99223.19;;;8.21;100.00
9905;BME280;4991;43.566;27.820;2023-01-09T08:42:38;99213.69;;;8.18;100.00
9905;BME280;4991;43.566;27.820;2023-01-09T08:45:22;99208.28;;;8.23;100.00
9905;BME280;4991;43.566;27.820;2023-01-09T08:48:07;99206.34;;;8.34;100.00
9905;BME280;4991;43.566;27.820;2023-01-09T08:50:32;99204.91;;;8.46;100.00
9905;BME280;4991;43.566;27.820;2023-01-09T08:52:58;99203.22;;;8.60;100.00
9905;BME280;4991;43.566;27.820;2023-01-09T08:55:24;99209.88;;;8.78;100.00
9905;BME280;4991;43.566;27.820;2023-01-09T08:57:51;99211.16;;;8.85;100.00
9905;BME280;4991;43.566;27.820;2023-01-09T09:00:18;99210.63;;;8.88;100.00
9905;BME280;4991;43.566;27.820;2023-01-09T09:02:44;99211.72;;;8.82;100.00
9905;BME280;4991;43.566;27.820;2023-01-09T09:05:10;99191.06;;;8.86;100.00
9905;BME280;4991;43.566;27.820;2023-01-09T09:07:36;99202.81;;;8.77;100.00
9905;BME280;4991;43.566;27.820;2023-01-09T09:10:02;99206.22;;;8.92;100.00
9905;BME280;4991;43.566;27.820;2023-01-09T09:12:28;99195.50;;;9.40;100.00
9905;BME280;4991;43.566;27.820;2023-01-09T09:14:53;99187.78;;;9.99;100.00
9905;BME280;4991;43.566;27.820;2023-01-09T09:17:38;99191.91;;;11.13;100.00
9905;BME280;4991;43.566;27.820;2023-01-09T09:20:13;99177.34;;;11.22;100.00
9905;BME280;4991;43.566;27.820;2023-01-09T09:22:39;99168.09;;;11.50;100.00
9905;BME280;4991;43.566;27.820;2023-01-09T09:25:05;99160.94;;;12.36;100.00
9905;BME280;4991;43.566;27.820;2023-01-09T09:27:31;99159.16;;;12.89;100.00
9905;BME280;4991;43.566;27.820;2023-01-09T09:29:57;99143.72;;;13.29;100.00
9905;BME280;4991;43.566;27.820;2023-01-09T09:32:23;99144.41;;;13.12;100.00
9905;BME280;4991;43.566;27.820;2023-01-09T09:34:48;99139.69;;;13.04;100.00
9905;BME280;4991;43.566;27.820;2023-01-09T09:37:14;99136.03;;;12.95;100.00
9905;BME280;4991;43.566;27.820;2023-01-09T09:39:39;99137.38;;;13.50;100.00
9905;BME280;4991;43.566;27.820;2023-01-09T09:55:42;99124.34;;;14.34;100.00
9905;BME280;4991;43.566;27.820;2023-01-09T09:58:36;99110.00;;;14.71;100.00
9905;BME280;4991;43.566;27.820;2023-01-09T10:01:04;99103.63;;;15.39;100.00
9905;BME280;4991;43.566;27.820;2023-01-09T10:03:45;99106.13;;;14.89;100.00
9905;BME280;4991;43.566;27.820;2023-01-09T10:11:25;99092.84;;;13.58;100.00
9905;BME280;4991;43.566;27.820;2023-01-09T10:13:52;99104.03;;;13.09;100.00
9905;BME280;4991;43.566;27.820;2023-01-09T10:27:03;99096.84;;;13.52;100.00
9905;BME280;4991;43.566;27.820;2023-01-09T10:29:39;99094.16;;;13.30;100.00
9905;BME280;4991;43.566;27.820;2023-01-09T10:37:52;99074.25;;;12.41;100.00
9905;BME280;4991;43.566;27.820;2023-01-09T10:40:31;99071.38;;;12.11;100.00
9905;BME280;4991;43.566;27.820;2023-01-09T10:43:05;99066.66;;;12.03;100.00
9905;BME280;4991;43.566;27.820;2023-01-09T10:45:46;99074.38;;;11.87;100.00
9905;BME280;4991;43.566;27.820;2023-01-09T10:48:35;99076.91;;;11.84;100.00
9905;BME280;4991;43.566;27.820;2023-01-09T10:51:04;99072.56;;;11.69;100.00
9905;BME280;4991;43.566;27.820;2023-01-09T10:53:38;99068.72;;;11.70;100.00
9905;BME280;4991;43.566;27.820;2023-01-09T10:56:14;99059.72;;;12.19;100.00
9905;BME280;4991;43.566;27.820;2023-01-09T10:58:43;99069.09;;;12.40;100.00
9905;BME280;4991;43.566;27.820;2023-01-09T11:01:09;99058.06;;;11.96;100.00
9905;BME280;4991;43.566;27.820;2023-01-09T11:03:34;99049.50;;;11.48;100.00
9905;BME280;4991;43.566;27.820;2023-01-09T11:06:02;99049.44;;;11.66;100.00
9905;BME280;4991;43.566;27.820;2023-01-09T11:08:40;99038.72;;;11.84;100.00
9905;BME280;4991;43.566;27.820;2023-01-09T11:11:07;99027.78;;;11.84;100.00
9905;BME280;4991;43.566;27.820;2023-01-09T11:13:35;99037.88;;;11.83;100.00
9905;BME280;4991;43.566;27.820;2023-01-09T11:16:20;99025.94;;;11.93;100.00
9905;BME280;4991;43.566;27.820;2023-01-09T11:18:54;99025.31;;;11.96;100.00
9905;BME280;4991;43.566;27.820;2023-01-09T11:26:51;99009.31;;;13.13;100.00
9905;BME280;4991;43.566;27.820;2023-01-09T11:29:21;99005.00;;;12.98;100.00
9905;BME280;4991;43.566;27.820;2023-01-09T11:31:58;99014.09;;;13.08;100.00
9905;BME280;4991;43.566;27.820;2023-01-09T11:34:26;99020.63;;;12.98;100.00
9905;BME280;4991;43.566;27.820;2023-01-09T11:37:00;99012.41;;;12.45;100.00
9905;BME280;4991;43.566;27.820;2023-01-09T11:39:30;99007.81;;;12.32;100.00
9905;BME280;4991;43.566;27.820;2023-01-09T11:41:59;99004.03;;;12.20;100.00
9905;BME280;4991;43.566;27.820;2023-01-09T11:44:27;99003.91;;;12.47;100.00
9905;BME280;4991;43.566;27.820;2023-01-09T11:46:55;99000.84;;;12.70;100.00
9905;BME280;4991;43.566;27.820;2023-01-09T11:49:23;99012.38;;;12.89;100.00
9905;BME280;4991;43.566;27.820;2023-01-09T11:52:18;99003.94;;;12.77;100.00
9905;BME280;4991;43.566;27.820;2023-01-09T11:54:56;99010.59;;;12.85;100.00
9905;BME280;4991;43.566;27.820;2023-01-09T11:57:23;99005.69;;;12.73;100.00
9905;BME280;4991;43.566;27.820;2023-01-09T11:59:50;99013.16;;;12.59;100.00
9905;BME280;4991;43.566;27.820;2023-01-09T12:24:24;98983.78;;;12.95;100.00
9905;BME280;4991;43.566;27.820;2023-01-09T12:27:02;98982.59;;;13.10;100.00
9905;BME280;4991;43.566;27.820;2023-01-09T12:35:12;98981.50;;;13.76;100.00
9905;BME280;4991;43.566;27.820;2023-01-09T12:40:30;98963.81;;;14.50;100.00
9905;BME280;4991;43.566;27.820;2023-01-09T12:46:03;98959.56;;;14.70;100.00
9905;BME280;4991;43.566;27.820;2023-01-09T12:54:00;98966.88;;;15.41;100.00
9905;BME280;4991;43.566;27.820;2023-01-09T12:56:31;98974.56;;;15.56;100.00
9905;BME280;4991;43.566;27.820;2023-01-09T12:59:15;98963.47;;;15.94;100.00
9905;BME280;4991;43.566;27.820;2023-01-09T13:01:47;98971.09;;;15.68;100.00
9905;BME280;4991;43.566;27.820;2023-01-09T13:04:36;98969.22;;;15.60;100.00
9905;BME280;4991;43.566;27.820;2023-01-09T13:07:17;98972.09;;;15.25;100.00
9905;BME280;4991;43.566;27.820;2023-01-09T13:12:49;98977.66;;;14.62;100.00
9905;BME280;4991;43.566;27.820;2023-01-09T13:15:28;98974.28;;;14.31;100.00
9905;BME280;4991;43.566;27.820;2023-01-09T13:18:00;98972.66;;;14.56;100.00
9905;BME280;4991;43.566;27.820;2023-01-09T13:20:35;98977.50;;;14.50;100.00
9905;BME280;4991;43.566;27.820;2023-01-09T13:23:04;98982.00;;;14.55;100.00
9905;BME280;4991;43.566;27.820;2023-01-09T13:33:22;98969.38;;;13.04;100.00
9905;BME280;4991;43.566;27.820;2023-01-09T13:38:26;98976.59;;;12.47;100.00
9905;BME280;4991;43.566;27.820;2023-01-09T13:41:19;98975.09;;;12.41;100.00
9905;BME280;4991;43.566;27.820;2023-01-09T13:44:05;98975.63;;;11.85;100.00
9905;BME280;4991;43.566;27.820;2023-01-09T13:46:46;98966.47;;;11.54;100.00
9905;BME280;4991;43.566;27.820;2023-01-09T13:59:48;98959.03;;;11.19;100.00
9905;BME280;4991;43.566;27.820;2023-01-09T14:05:03;98962.84;;;11.04;100.00
9905;BME280;4991;43.566;27.820;2023-01-09T14:07:31;98952.28;;;10.89;100.00
9905;BME280;4991;43.566;27.820;2023-01-09T14:09:59;98943.75;;;10.64;100.00
9905;BME280;4991;43.566;27.820;2023-01-09T14:12:27;98954.66;;;10.64;100.00
9905;BME280;4991;43.566;27.820;2023-01-09T14:14:57;98957.31;;;10.36;100.00
9905;BME280;4991;43.566;27.820;2023-01-09T14:17:31;98964.69;;;10.36;100.00
9905;BME280;4991;43.566;27.820;2023-01-09T14:20:03;98942.03;;;10.22;100.00
9905;BME280;4991;43.566;27.820;2023-01-09T14:22:34;98939.78;;;9.92;100.00
9905;BME280;4991;43.566;27.820;2023-01-09T14:25:06;98939.66;;;9.65;100.00
9905;BME280;4991;43.566;27.820;2023-01-09T14:33:29;98931.09;;;9.15;100.00
9905;BME280;4991;43.566;27.820;2023-01-09T14:38:41;98930.94;;;8.83;100.00
9905;BME280;4991;43.566;27.820;2023-01-09T14:41:19;98930.41;;;8.58;100.00
9905;BME280;4991;43.566;27.820;2023-01-09T14:46:23;98916.63;;;8.26;100.00
9905;BME280;4991;43.566;27.820;2023-01-09T14:49:34;98927.28;;;8.12;100.00
9905;BME280;4991;43.566;27.820;2023-01-09T14:52:00;98918.22;;;7.93;100.00
9905;BME280;4991;43.566;27.820;2023-01-09T14:54:32;98915.84;;;7.86;100.00
9905;BME280;4991;43.566;27.820;2023-01-09T14:56:58;98923.22;;;7.76;100.00
9905;BME280;4991;43.566;27.820;2023-01-09T14:59:26;98928.22;;;7.64;100.00
9905;BME280;4991;43.566;27.820;2023-01-09T15:01:53;98920.38;;;7.62;100.00
9905;BME280;4991;43.566;27.820;2023-01-09T15:04:29;98921.00;;;7.49;100.00
9905;BME280;4991;43.566;27.820;2023-01-09T15:07:00;98915.56;;;7.49;100.00
9905;BME280;4991;43.566;27.820;2023-01-09T15:09:42;98908.84;;;7.42;100.00
9905;BME280;4991;43.566;27.820;2023-01-09T15:12:21;98905.34;;;7.36;100.00
9905;BME280;4991;43.566;27.820;2023-01-09T15:14:52;98899.44;;;7.29;100.00
9905;BME280;4991;43.566;27.820;2023-01-09T15:17:28;98889.16;;;7.21;100.00
9905;BME280;4991;43.566;27.820;2023-01-09T15:19:56;98892.44;;;7.18;100.00
9905;BME280;4991;43.566;27.820;2023-01-09T15:24:52;98888.16;;;7.12;100.00
9905;BME280;4991;43.566;27.820;2023-01-09T15:27:18;98894.97;;;7.00;100.00
9905;BME280;4991;43.566;27.820;2023-01-09T15:29:46;98897.97;;;6.93;100.00
9905;BME280;4991;43.566;27.820;2023-01-09T15:32:23;98902.03;;;6.96;100.00
9905;BME280;4991;43.566;27.820;2023-01-09T15:34:49;98899.94;;;6.83;100.00
9905;BME280;4991;43.566;27.820;2023-01-09T15:39:59;98896.69;;;6.81;100.00
9905;BME280;4991;43.566;27.820;2023-01-09T15:42:31;98892.66;;;6.78;100.00
9905;BME280;4991;43.566;27.820;2023-01-09T15:47:48;98881.59;;;6.70;100.00
9905;BME280;4991;43.566;27.820;2023-01-09T15:50:15;98885.63;;;6.67;100.00